Time;durP1;ratioP1;P1;durP2;ratioP2;P2;SDS_P1;SDS_P2;PMS_P1;PMS_P2;Temp;Humidity;BMP_temperature;BMP_pressure;BME280_temperature;BME280_humidity;BME280_pressure;Samples;Min_cycle;Max_cycle;Signal;HPM_P1;HPM_P2
2022/08/30 00:03:08;;;;;;;28.87;12.00;;;;;;;39.37;36.86;101081.41;5034000;28;20775;-74
2022/08/30 00:05:34;;;;;;;27.90;13.07;;;;;;;39.41;36.58;101091.34;5032746;28;20487;-74
2022/08/30 00:08:00;;;;;;;26.37;14.27;;;;;;;39.03;37.55;101087.38;5015931;28;20482;-75
2022/08/30 00:10:28;;;;;;;19.07;12.57;;;;;;;39.11;37.56;101092.88;5032320;28;20416;-74
2022/08/30 00:12:56;;;;;;;33.37;13.50;;;;;;;39.30;36.79;101094.63;5033673;28;20988;-75
2022/08/30 00:15:24;;;;;;;30.30;13.57;;;;;;;39.28;36.67;101096.81;5033538;28;20419;-74
2022/08/30 00:17:50;;;;;;;32.77;13.10;;;;;;;39.44;36.66;101101.56;5032147;28;20974;-74
2022/08/30 00:20:23;;;;;;;25.50;13.33;;;;;;;39.32;36.75;101098.63;5033582;28;20770;-74
2022/08/30 00:22:49;;;;;;;33.33;13.43;;;;;;;39.37;36.69;101101.22;5032068;28;20478;-75
2022/08/30 00:25:18;;;;;;;43.10;17.43;;;;;;;39.61;36.40;101100.09;5031922;28;20447;-74
2022/08/30 00:27:44;;;;;;;21.57;13.30;;;;;;;39.75;36.41;101104.28;5015666;28;20427;-75
2022/08/30 00:30:12;;;;;;;33.07;14.57;;;;;;;39.83;36.19;101113.59;5031942;28;20427;-74
2022/08/30 00:32:38;;;;;;;29.43;12.67;;;;;;;40.01;36.05;101106.31;5031694;28;20478;-73
2022/08/30 00:35:06;;;;;;;32.43;15.40;;;;;;;40.15;35.60;101108.94;5033570;28;20410;-73
2022/08/30 00:37:32;;;;;;;40.33;15.70;;;;;;;40.06;35.28;101111.63;5031732;28;20427;-74
2022/08/30 00:39:58;;;;;;;26.20;11.87;;;;;;;40.17;35.54;101104.78;5032358;28;20443;-75
2022/08/30 00:42:24;;;;;;;32.27;13.27;;;;;;;40.06;35.83;101111.63;5031987;28;20427;-75
2022/08/30 00:44:51;;;;;;;23.80;14.80;;;;;;;39.95;35.60;101108.34;5031523;28;20470;-75
2022/08/30 00:47:18;;;;;;;30.00;13.90;;;;;;;40.18;35.40;101111.81;5031545;28;20435;-73
2022/08/30 00:49:51;;;;;;;22.70;13.83;;;;;;;40.17;35.29;101114.88;5031450;28;20504;-74
2022/08/30 00:52:19;;;;;;;23.60;11.83;;;;;;;40.01;35.56;101115.25;5031384;28;20431;-75
2022/08/30 00:54:47;;;;;;;29.50;14.43;;;;;;;40.07;35.56;101115.94;5031355;28;20475;-72
2022/08/30 00:57:14;;;;;;;29.37;13.93;;;;;;;40.19;35.59;101115.34;5031519;28;20426;-75
2022/08/30 00:59:45;;;;;;;29.67;13.20;;;;;;;40.37;34.84;101106.09;5033096;28;20404;-75
2022/08/30 01:02:13;;;;;;;20.10;10.90;;;;;;;40.53;34.58;101114.66;5015448;28;20466;-73
2022/08/30 01:04:42;;;;;;;30.27;13.93;;;;;;;40.70;34.48;101111.94;5032850;28;20400;-74
2022/08/30 01:07:08;;;;;;;26.63;12.47;;;;;;;40.39;35.06;101112.03;5031165;28;20872;-75
2022/08/30 01:09:35;;;;;;;31.57;14.47;;;;;;;40.59;35.03;101105.22;5032900;28;20395;-75
2022/08/30 01:12:03;;;;;;;25.73;14.67;;;;;;;40.40;35.15;101102.75;5031171;28;20439;-72
2022/08/30 01:14:32;;;;;;;25.50;12.30;;;;;;;40.18;35.17;101103.66;5031022;28;20451;-73
2022/08/30 01:17:02;;;;;;;30.30;12.20;;;;;;;40.14;35.14;101099.19;5031597;28;20432;-74
2022/08/30 01:19:40;;;;;;;28.73;13.00;;;;;;;40.13;35.43;101087.50;5031013;28;20415;-75
2022/08/30 01:22:16;;;;;;;26.57;13.47;;;;;;;39.96;36.32;101098.28;5031101;28;20997;-74
2022/08/30 01:24:46;;;;;;;29.57;15.07;;;;;;;40.02;35.79;101089.72;5032691;28;20441;-74
2022/08/30 01:27:16;;;;;;;29.27;13.63;;;;;;;40.27;35.71;101092.84;5031100;28;20775;-74
2022/08/30 01:29:43;;;;;;;29.40;13.60;;;;;;;40.15;35.79;101087.22;5014633;28;20481;-74
2022/08/30 01:32:19;;;;;;;30.73;12.97;;;;;;;40.23;35.65;101086.44;5031058;28;20943;-75
2022/08/30 01:34:47;;;;;;;26.67;12.97;;;;;;;40.37;35.39;101087.06;5030956;28;20522;-73
2022/08/30 01:37:20;;;;;;;29.40;11.77;;;;;;;40.52;35.63;101083.94;5015041;28;20446;-73
2022/08/30 01:39:47;;;;;;;38.20;16.60;;;;;;;40.33;35.20;101083.41;5032440;28;20474;-73
2022/08/30 01:42:16;;;;;;;32.93;16.23;;;;;;;40.55;35.09;101075.13;5030925;28;20470;-73
2022/08/30 01:44:47;;;;;;;26.27;12.83;;;;;;;40.18;35.73;101081.13;5030826;28;20439;-73
2022/08/30 01:47:15;;;;;;;31.37;14.27;;;;;;;40.18;35.86;101079.22;5030884;28;20423;-73
2022/08/30 01:49:41;;;;;;;22.13;12.50;;;;;;;40.50;35.14;101079.91;5030859;28;20501;-73
2022/08/30 01:52:07;;;;;;;20.97;11.53;;;;;;;40.22;35.65;101085.63;5034346;28;20470;-74
2022/08/30 01:54:36;;;;;;;30.30;11.03;;;;;;;40.27;35.64;101084.69;5034745;28;20505;-75
2022/08/30 01:57:03;;;;;;;27.23;12.10;;;;;;;40.35;35.62;101081.16;5034665;28;20469;-75
2022/08/30 01:59:29;;;;;;;34.70;15.03;;;;;;;39.76;36.12;101084.16;5034560;28;20946;-75
2022/08/30 02:01:56;;;;;;;38.33;13.00;;;;;;;39.84;36.37;101076.34;5034608;28;20506;-73
2022/08/30 02:04:22;;;;;;;26.63;13.30;;;;;;;39.99;35.89;101067.78;5036258;28;20408;-73
2022/08/30 02:06:48;;;;;;;33.20;13.17;;;;;;;40.05;36.31;101063.03;5035702;28;21001;-73
2022/08/30 02:09:14;;;;;;;35.67;15.73;;;;;;;40.09;35.49;101075.69;5036109;28;20779;-73
2022/08/30 02:11:40;;;;;;;24.47;13.17;;;;;;;39.92;35.68;101076.41;5034515;28;20434;-73
2022/08/30 02:14:06;;;;;;;22.93;13.37;;;;;;;39.82;36.17;101065.03;5034259;28;20470;-73
2022/08/30 02:16:32;;;;;;;28.90;16.93;;;;;;;39.63;36.50;101073.41;5034353;28;20423;-73
2022/08/30 02:18:58;;;;;;;28.53;12.37;;;;;;;40.07;36.06;101061.59;5036176;28;20483;-73
2022/08/30 02:21:26;;;;;;;34.80;12.37;;;;;;;40.21;35.32;101061.50;5034243;28;20411;-73
2022/08/30 02:23:52;;;;;;;25.47;14.40;;;;;;;40.07;35.41;101060.81;5035856;28;20384;-73
2022/08/30 02:26:19;;;;;;;28.93;12.83;;;;;;;40.03;35.68;101053.28;5034324;28;20553;-73
2022/08/30 02:28:46;;;;;;;28.27;12.30;;;;;;;39.85;35.68;101051.63;5036042;28;20430;-73
2022/08/30 02:31:13;;;;;;;31.50;13.47;;;;;;;40.02;35.59;101048.13;5034241;28;20990;-73
2022/08/30 02:33:39;;;;;;;36.00;13.70;;;;;;;40.23;35.62;101046.47;5033935;28;20492;-73
2022/08/30 02:36:06;;;;;;;30.87;13.07;;;;;;;40.18;35.41;101048.53;5034073;28;20469;-73
2022/08/30 02:38:32;;;;;;;24.13;13.10;;;;;;;40.33;35.26;101048.06;5034033;28;20407;-74
2022/08/30 02:40:59;;;;;;;16.57;10.17;;;;;;;39.76;36.41;101040.72;5034098;28;20498;-73
2022/08/30 02:43:25;;;;;;;20.47;12.67;;;;;;;39.95;35.66;101026.88;5035879;28;20408;-73
2022/08/30 02:45:52;;;;;;;32.37;13.57;;;;;;;39.88;36.03;101033.88;5033838;28;20416;-74
2022/08/30 02:48:18;;;;;;;26.90;13.50;;;;;;;40.00;36.14;101042.22;5033725;28;20804;-75
2022/08/30 02:50:46;;;;;;;27.83;11.70;;;;;;;40.13;35.64;101044.03;5033883;28;20415;-74
2022/08/30 02:53:13;;;;;;;28.13;15.83;;;;;;;40.06;35.71;101037.47;5034182;28;20451;-74
2022/08/30 02:55:39;;;;;;;41.03;15.70;;;;;;;40.20;35.91;101038.13;5033672;28;20422;-75
2022/08/30 02:58:06;;;;;;;23.80;13.57;;;;;;;40.20;35.55;101035.41;5033450;28;20474;-74
2022/08/30 03:00:33;;;;;;;38.63;14.40;;;;;;;40.17;35.90;101036.06;5017386;28;20923;-75
2022/08/30 03:03:02;;;;;;;38.47;17.07;;;;;;;40.20;35.62;101029.97;5032464;28;20923;-73
2022/08/30 03:05:30;;;;;;;27.03;10.87;;;;;;;40.02;35.96;101026.41;5034848;28;20460;-75
2022/08/30 03:07:56;;;;;;;35.03;15.77;;;;;;;39.89;36.12;101032.75;5033452;28;20474;-75
2022/08/30 03:10:22;;;;;;;26.40;11.90;;;;;;;40.16;35.32;101031.75;5016908;28;20404;-75
2022/08/30 03:12:48;;;;;;;34.73;16.50;;;;;;;40.12;35.49;101038.91;5033353;28;20518;-75
2022/08/30 03:15:15;;;;;;;35.50;12.23;;;;;;;40.24;35.48;101039.09;5016797;28;20416;-75
2022/08/30 03:17:42;;;;;;;42.40;13.43;;;;;;;40.20;35.46;101032.69;5033298;28;20416;-75
2022/08/30 03:20:09;;;;;;;30.67;13.87;;;;;;;40.34;35.29;101032.56;5033260;28;20474;-75
2022/08/30 03:22:35;;;;;;;29.80;11.73;;;;;;;40.01;36.01;101036.47;5016801;28;20933;-73
2022/08/30 03:25:03;;;;;;;28.30;11.63;;;;;;;39.73;36.06;101035.13;5034779;28;20933;-74
2022/08/30 03:27:31;;;;;;;24.53;13.80;;;;;;;39.55;36.73;101044.28;5016702;28;20419;-74
2022/08/30 03:29:57;;;;;;;22.10;12.00;;;;;;;39.43;36.86;101047.59;5033082;28;20455;-73
2022/08/30 03:32:23;;;;;;;42.80;14.43;;;;;;;39.69;36.61;101045.00;5034225;28;20431;-75
2022/08/30 03:34:50;;;;;;;24.20;13.33;;;;;;;39.94;36.28;101055.16;5033076;28;20426;-73
2022/08/30 03:37:16;;;;;;;27.87;12.97;;;;;;;39.71;36.48;101043.56;5032942;28;20431;-73
2022/08/30 03:39:44;;;;;;;22.33;13.67;;;;;;;39.81;36.23;101052.56;5032794;28;20423;-73
2022/08/30 03:42:10;;;;;;;30.83;13.90;;;;;;;40.01;36.11;101049.25;5032846;28;20470;-75
2022/08/30 03:44:36;;;;;;;25.53;12.17;;;;;;;40.13;35.72;101043.22;5034399;28;20407;-73
2022/08/30 03:47:04;;;;;;;32.07;15.67;;;;;;;40.05;35.61;101047.53;5016192;28;21073;-73
2022/08/30 03:49:30;;;;;;;33.13;14.10;;;;;;;40.10;35.62;101058.28;5016461;28;20447;-73
2022/08/30 03:51:56;;;;;;;33.73;12.00;;;;;;;39.97;35.88;101043.66;5032810;28;20471;-73
2022/08/30 03:54:22;;;;;;;25.47;11.83;;;;;;;39.75;36.23;101054.63;5033776;28;20439;-73
2022/08/30 03:56:48;;;;;;;25.40;13.67;;;;;;;39.64;36.42;101054.09;5032623;28;20444;-73
2022/08/30 03:59:15;;;;;;;31.20;14.43;;;;;;;39.70;36.34;101054.75;5032356;28;20416;-74
2022/08/30 04:01:41;;;;;;;27.70;16.07;;;;;;;39.94;36.10;101057.88;5016152;28;20432;-75
2022/08/30 04:04:08;;;;;;;27.17;13.13;;;;;;;39.90;35.84;101056.09;5032307;28;20434;-75
2022/08/30 04:06:34;;;;;;;24.70;13.83;;;;;;;39.91;36.49;101055.78;5032256;28;20479;-75
2022/08/30 04:09:00;;;;;;;33.33;15.93;;;;;;;40.10;35.90;101044.69;5032364;28;20779;-75
2022/08/30 04:11:26;;;;;;;26.93;12.70;;;;;;;39.99;36.08;101049.56;4999548;28;20407;-75
2022/08/30 04:13:54;;;;;;;22.60;13.27;;;;;;;40.43;35.38;101060.53;5032451;28;20621;-75
2022/08/30 04:16:21;;;;;;;28.80;12.10;;;;;;;40.09;35.71;101043.09;5015987;28;20419;-75
2022/08/30 04:18:47;;;;;;;29.10;12.83;;;;;;;40.07;35.84;101050.72;5032435;28;20431;-75
2022/08/30 04:21:14;;;;;;;27.20;14.87;;;;;;;40.09;35.45;101043.09;5032140;28;20926;-75
2022/08/30 04:23:41;;;;;;;22.17;12.47;;;;;;;39.83;36.03;101050.31;5032000;28;20411;-73
2022/08/30 04:26:08;;;;;;;23.50;13.70;;;;;;;39.83;35.93;101044.88;4999356;28;20428;-72
2022/08/30 04:28:34;;;;;;;26.23;13.13;;;;;;;39.83;36.09;101050.31;5031918;28;20423;-72
2022/08/30 04:31:07;;;;;;;34.03;12.73;;;;;;;40.21;35.88;101054.13;5031937;28;20473;-75
2022/08/30 04:33:34;;;;;;;26.87;12.70;;;;;;;40.40;35.03;101062.00;5031710;28;20821;-75
2022/08/30 04:36:05;;;;;;;29.17;13.80;;;;;;;40.29;35.40;101064.22;5031834;28;20443;-74
2022/08/30 04:38:34;;;;;;;28.40;14.30;;;;;;;40.52;34.76;101072.25;5015804;28;20419;-75
2022/08/30 04:41:00;;;;;;;29.23;12.60;;;;;;;40.05;35.96;101065.75;5032130;28;20912;-75
2022/08/30 04:43:27;;;;;;;23.60;12.60;;;;;;;39.73;36.08;101073.16;5031618;28;20411;-74
2022/08/30 04:45:54;;;;;;;31.67;14.50;;;;;;;40.02;35.78;101065.25;5015160;28;20839;-73
2022/08/30 04:48:21;;;;;;;33.43;13.30;;;;;;;40.10;35.56;101065.63;5031665;28;20510;-73
2022/08/30 04:50:48;;;;;;;33.03;13.53;;;;;;;39.49;36.59;101070.78;5031612;28;20934;-73
2022/08/30 04:53:15;;;;;;;27.67;13.03;;;;;;;40.13;35.86;101067.69;5031349;28;20850;-73
2022/08/30 04:55:42;;;;;;;29.80;14.20;;;;;;;40.25;35.57;101062.44;5031512;28;20502;-73
2022/08/30 04:58:09;;;;;;;28.90;12.73;;;;;;;40.06;35.49;101064.66;5031633;28;20455;-72
2022/08/30 05:00:36;;;;;;;23.53;11.53;;;;;;;39.88;35.98;101061.03;5031489;28;20423;-74
2022/08/30 05:03:03;;;;;;;27.97;13.90;;;;;;;39.95;36.04;101055.94;5031410;28;20416;-75
2022/08/30 05:05:38;;;;;;;23.03;13.77;;;;;;;39.99;35.49;101071.31;5031028;28;20812;-75
2022/08/30 05:08:09;;;;;;;23.87;11.80;;;;;;;39.45;36.12;101057.00;5033072;28;20392;-74
2022/08/30 05:10:42;;;;;;;29.87;11.33;;;;;;;39.35;36.80;101056.47;5031325;28;20444;-73
2022/08/30 05:13:09;;;;;;;19.43;11.60;;;;;;;39.82;35.99;101060.38;5031234;28;20447;-73
2022/08/30 05:15:36;;;;;;;29.30;10.40;;;;;;;39.59;36.58;101056.91;5030929;28;20440;-74
2022/08/30 05:18:03;;;;;;;31.20;13.33;;;;;;;39.81;36.03;101058.00;5031466;28;20439;-75
2022/08/30 05:20:29;;;;;;;28.60;15.13;;;;;;;39.70;36.07;101054.75;5032746;28;20404;-75
2022/08/30 05:22:55;;;;;;;29.67;14.70;;;;;;;39.46;36.60;101055.09;5031181;28;20443;-74
2022/08/30 05:25:25;;;;;;;37.50;14.40;;;;;;;39.48;36.86;101050.97;5030935;28;20426;-74
2022/08/30 05:27:52;;;;;;;30.03;13.20;;;;;;;39.60;36.60;101053.13;5032431;28;20938;-74
2022/08/30 05:30:19;;;;;;;24.70;12.43;;;;;;;39.76;36.67;101057.00;5031131;28;20447;-74
2022/08/30 05:32:46;;;;;;;33.40;13.57;;;;;;;39.82;36.33;101054.16;5032405;28;20541;-72
2022/08/30 05:35:15;;;;;;;31.40;12.53;;;;;;;39.57;36.44;101053.72;5032552;28;20422;-74
2022/08/30 05:37:42;;;;;;;25.30;12.30;;;;;;;39.03;37.45;101057.53;5014764;28;20427;-73
2022/08/30 05:40:10;;;;;;;39.97;14.30;;;;;;;39.28;37.04;101053.41;5003050;28;20460;-72
2022/08/30 05:42:36;;;;;;;28.60;12.70;;;;;;;39.10;37.30;101050.59;5020278;28;20455;-73
2022/08/30 05:45:04;;;;;;;33.03;12.60;;;;;;;39.49;36.68;101051.78;5020492;28;21035;-72
2022/08/30 05:47:30;;;;;;;34.67;18.23;;;;;;;39.50;36.41;101065.03;5020268;28;20780;-72
2022/08/30 05:49:56;;;;;;;48.77;16.50;;;;;;;39.39;36.87;101052.03;5010998;28;20783;-73
2022/08/30 05:52:22;;;;;;;30.23;14.23;;;;;;;39.62;36.44;101056.31;5010916;28;21017;-74
2022/08/30 05:54:53;;;;;;;22.90;12.57;;;;;;;39.58;36.75;101070.81;5011194;28;20428;-73
2022/08/30 05:57:20;;;;;;;30.20;13.00;;;;;;;39.48;36.73;101066.47;4994981;28;20428;-73
2022/08/30 05:59:46;;;;;;;29.17;15.87;;;;;;;39.67;36.38;101072.47;5010915;28;20451;-74
2022/08/30 06:02:13;;;;;;;36.13;14.20;;;;;;;39.23;37.02;101082.28;5012091;28;20539;-76
2022/08/30 06:04:39;;;;;;;35.40;13.77;;;;;;;39.14;37.15;101084.09;5010740;28;20586;-72
2022/08/30 06:07:05;;;;;;;45.27;14.30;;;;;;;38.87;37.56;101079.63;5044087;28;20492;-76
2022/08/30 06:09:31;;;;;;;26.20;14.83;;;;;;;39.39;37.40;101090.03;5029756;28;20493;-76
2022/08/30 06:11:57;;;;;;;30.97;13.00;;;;;;;39.22;37.38;101086.09;5024256;28;20412;-73
2022/08/30 06:14:24;;;;;;;33.40;14.33;;;;;;;39.32;37.10;101081.53;5029598;28;20512;-73
2022/08/30 06:16:50;;;;;;;37.10;17.07;;;;;;;39.14;37.44;101078.69;5021197;28;20827;-75
2022/08/30 06:19:18;;;;;;;28.83;14.30;;;;;;;38.87;37.80;101067.97;5021216;28;20424;-74
2022/08/30 06:21:48;;;;;;;25.47;11.17;;;;;;;38.88;37.79;101061.44;5021280;28;20431;-75
2022/08/30 06:24:14;;;;;;;35.63;12.40;;;;;;;39.25;36.96;101067.59;5027521;28;20416;-76
2022/08/30 06:26:46;;;;;;;25.73;13.67;;;;;;;39.40;37.10;101061.78;5021601;28;20438;-74
2022/08/30 06:29:15;;;;;;;24.30;12.80;;;;;;;39.73;36.74;101056.84;5030477;28;20916;-76
2022/08/30 06:31:41;;;;;;;39.23;15.10;;;;;;;39.48;37.09;101061.03;5030077;28;20427;-76
2022/08/30 06:34:08;;;;;;;33.67;13.63;;;;;;;39.43;37.09;101069.31;5028751;28;21100;-75
2022/08/30 06:36:35;;;;;;;38.77;14.10;;;;;;;39.50;37.32;101070.47;5029963;28;20403;-76
2022/08/30 06:39:01;;;;;;;30.17;13.20;;;;;;;39.49;36.58;101073.50;5030374;28;20503;-75
2022/08/30 06:41:30;;;;;;;35.13;12.80;;;;;;;39.25;37.29;101084.69;5033683;28;20400;-74
2022/08/30 06:43:57;;;;;;;24.87;14.00;;;;;;;39.41;37.33;101068.78;5032169;28;20431;-74
2022/08/30 06:46:27;;;;;;;24.27;13.73;;;;;;;39.61;37.02;101075.66;5033923;28;20450;-74
2022/08/30 06:48:54;;;;;;;30.67;11.83;;;;;;;39.40;37.14;101087.00;5032406;28;20415;-75
2022/08/30 06:51:22;;;;;;;25.83;12.60;;;;;;;39.58;36.75;101093.31;5032904;28;20423;-74
2022/08/30 06:53:49;;;;;;;23.07;12.03;;;;;;;39.58;36.61;101085.19;5032910;28;20456;-74
2022/08/30 06:56:16;;;;;;;23.07;12.50;;;;;;;39.66;36.75;101098.03;5032410;28;20502;-74
2022/08/30 06:58:43;;;;;;;25.87;12.60;;;;;;;39.56;36.51;101105.63;5022965;28;20413;-74
2022/08/30 07:01:17;;;;;;;30.57;14.70;;;;;;;39.00;37.56;101096.94;5027726;28;21020;-76
2022/08/30 07:03:43;;;;;;;26.13;12.87;;;;;;;39.08;37.48;101101.63;5033617;28;20411;-76
2022/08/30 07:06:10;;;;;;;35.60;15.47;;;;;;;39.49;36.89;101106.88;5034851;28;21032;-76
2022/08/30 07:08:37;;;;;;;32.70;14.83;;;;;;;39.55;36.96;101118.41;5033356;28;20511;-76
2022/08/30 07:11:04;;;;;;;28.83;13.20;;;;;;;39.65;36.49;101122.78;5033356;28;20422;-75
2022/08/30 07:13:31;;;;;;;30.87;12.17;;;;;;;39.47;37.30;101127.28;5033269;28;20994;-75
2022/08/30 07:15:57;;;;;;;22.50;13.20;;;;;;;39.37;37.03;101132.97;5034185;28;20412;-75
2022/08/30 07:21:11;;;;;;;29.13;14.90;;;;;;;39.52;37.06;101129.88;5034533;28;20415;-77
2022/08/30 07:23:38;;;;;;;29.97;16.43;;;;;;;39.91;36.33;101126.41;5032647;28;20954;-80
2022/08/30 07:26:11;;;;;;;24.00;13.23;;;;;;;39.65;36.68;101129.00;5033953;28;20404;-80
2022/08/30 07:28:39;;;;;;;25.70;12.07;;;;;;;39.43;36.58;101134.44;5032421;28;20481;-81
2022/08/30 07:31:05;;;;;;;24.60;11.97;;;;;;;39.57;36.75;101146.03;5034694;28;20478;-79
2022/08/30 07:33:32;;;;;;;33.37;14.83;;;;;;;39.66;36.54;101143.41;5026476;28;20509;-85
2022/08/30 07:35:58;;;;;;;29.10;11.80;;;;;;;39.92;36.18;101143.53;5008071;28;20427;-79
2022/08/30 07:38:25;;;;;;;24.53;11.03;;;;;;;40.04;35.79;101157.34;5032883;28;20479;-78
2022/08/30 07:40:52;;;;;;;22.57;12.63;;;;;;;40.26;35.10;101167.31;5023178;28;20440;-79
2022/08/30 07:43:18;;;;;;;21.50;12.50;;;;;;;40.39;35.22;101166.41;5031536;28;20869;-78
2022/08/30 07:45:44;;;;;;;46.77;11.87;;;;;;;40.39;35.37;101163.69;5026625;28;20967;-74
2022/08/30 07:48:11;;;;;;;25.30;12.47;;;;;;;40.34;34.72;101172.00;5032705;28;20411;-75
2022/08/30 07:50:43;;;;;;;23.37;13.40;;;;;;;40.42;35.04;101179.34;5032095;28;20489;-76
2022/08/30 07:53:09;;;;;;;24.93;11.80;;;;;;;40.50;34.92;101175.09;5015464;28;20458;-75
2022/08/30 07:55:35;;;;;;;22.73;9.67;;;;;;;40.37;35.22;101182.22;5032761;28;20416;-74
2022/08/30 07:58:01;;;;;;;20.83;11.67;;;;;;;40.35;35.25;101194.53;5032520;28;20450;-75
2022/08/30 08:00:27;;;;;;;25.80;10.70;;;;;;;40.53;34.93;101194.28;5032246;28;20470;-77
2022/08/30 08:02:54;;;;;;;21.33;11.67;;;;;;;40.34;35.03;101195.66;5030070;28;20403;-74
2022/08/30 08:05:20;;;;;;;30.90;11.97;;;;;;;40.43;34.80;101193.75;5018942;28;20875;-75
2022/08/30 08:07:46;;;;;;;30.90;12.50;;;;;;;40.19;35.30;101194.94;5013750;28;20475;-77
2022/08/30 08:10:13;;;;;;;20.63;11.57;;;;;;;39.99;35.31;101200.91;5012694;28;20420;-73
2022/08/30 08:12:40;;;;;;;21.50;10.13;;;;;;;40.06;35.01;101201.28;5028860;28;20424;-74
2022/08/30 08:15:07;;;;;;;26.40;9.50;;;;;;;39.70;35.85;101206.81;5018419;28;20412;-73
2022/08/30 08:17:33;;;;;;;28.27;10.70;;;;;;;39.32;36.45;101211.81;5032101;28;20458;-73
2022/08/30 08:19:59;;;;;;;25.83;12.17;;;;;;;39.56;36.22;101216.94;5032341;28;20846;-72
2022/08/30 08:22:25;;;;;;;27.03;12.90;;;;;;;39.53;35.75;101218.34;5032492;28;20466;-78
2022/08/30 08:24:51;;;;;;;26.70;11.50;;;;;;;39.86;35.99;101218.09;5032066;28;20490;-74
2022/08/30 08:27:17;;;;;;;39.00;14.93;;;;;;;39.71;35.80;101217.38;5032366;28;20497;-78
2022/08/30 08:29:43;;;;;;;40.13;14.60;;;;;;;39.57;36.32;101215.81;5031811;28;20802;-76
2022/08/30 08:32:09;;;;;;;27.03;13.77;;;;;;;39.96;35.58;101221.38;5031818;28;20415;-76
2022/08/30 08:34:36;;;;;;;41.03;14.20;;;;;;;40.17;35.69;101229.78;5031794;28;20459;-74
2022/08/30 08:37:02;;;;;;;31.33;11.80;;;;;;;40.02;35.74;101227.44;5031752;28;20430;-75
2022/08/30 08:39:28;;;;;;;34.63;12.83;;;;;;;39.79;36.15;101223.19;5031739;28;21004;-78
2022/08/30 08:42:09;;;;;;;33.43;15.13;;;;;;;40.02;35.50;101230.16;5032780;28;20832;-78
2022/08/30 08:44:39;;;;;;;27.17;11.07;;;;;;;40.20;35.62;101228.34;5030310;28;20526;-78
2022/08/30 08:47:13;;;;;;;24.00;13.37;;;;;;;39.94;35.75;101215.44;5032440;28;20407;-79
2022/08/30 08:49:41;;;;;;;29.20;11.40;;;;;;;40.02;35.73;101211.97;5028106;28;20424;-79
2022/08/30 08:55:10;;;;;;;28.63;13.80;;;;;;;40.09;35.63;101208.03;5032898;28;20435;-74
2022/08/30 08:57:36;;;;;;;30.77;10.93;;;;;;;39.97;35.58;101209.38;5009735;28;20416;-75
2022/08/30 09:00:05;;;;;;;22.10;12.30;;;;;;;39.81;35.92;101207.38;5010767;28;20846;-78
2022/08/30 09:02:47;;;;;;;23.73;10.30;;;;;;;40.53;35.04;101217.97;5032306;28;20410;-75
2022/08/30 09:05:19;;;;;;;32.33;11.90;;;;;;;40.61;34.52;101217.19;5031788;28;20435;-74
2022/08/30 09:07:51;;;;;;;30.20;12.10;;;;;;;40.01;35.51;101223.13;5031190;28;20530;-76
2022/08/30 09:10:17;;;;;;;26.13;9.50;;;;;;;39.86;36.13;101216.19;5031263;28;20418;-75
2022/08/30 09:12:43;;;;;;;30.70;12.97;;;;;;;39.94;36.00;101220.06;5031029;28;20431;-74
2022/08/30 09:15:20;;;;;;;29.37;10.37;;;;;;;39.89;35.33;101214.75;5028159;28;20427;-76
2022/08/30 09:18:07;;;;;;;16.37;9.63;;;;;;;40.21;35.28;101203.59;5031348;28;20450;-73
2022/08/30 09:20:35;;;;;;;28.57;12.27;;;;;;;40.22;35.23;101216.06;5030108;28;20939;-73
2022/08/30 09:23:22;;;;;;;35.87;14.27;;;;;;;40.06;35.63;101217.59;5031836;28;20927;-75
2022/08/30 09:25:53;;;;;;;20.30;11.17;;;;;;;40.06;35.67;101231.19;5031481;28;20392;-75
2022/08/30 09:28:47;;;;;;;27.73;10.90;;;;;;;39.78;36.11;101227.81;5015370;28;20420;-75
2022/08/30 09:31:20;;;;;;;32.47;11.10;;;;;;;39.84;35.75;101220.31;5011177;28;20424;-74
2022/08/30 09:34:08;;;;;;;20.17;11.80;;;;;;;39.34;36.81;101225.84;5010828;28;20498;-75
2022/08/30 09:36:43;;;;;;;30.60;14.27;;;;;;;39.48;36.68;101240.19;5011005;28;20405;-72
2022/08/30 09:39:29;;;;;;;32.23;11.23;;;;;;;39.27;37.03;101230.91;5025868;28;20412;-73
2022/08/30 09:42:12;;;;;;;27.30;11.03;;;;;;;39.62;36.21;101221.16;5025652;28;20871;-73
2022/08/30 09:44:41;;;;;;;21.97;12.50;;;;;;;39.68;35.88;101234.28;5009675;28;20575;-73
2022/08/30 09:47:24;;;;;;;33.73;12.80;;;;;;;39.81;36.11;101231.81;5009311;28;20420;-73
2022/08/30 09:50:06;;;;;;;27.50;12.00;;;;;;;39.91;35.82;101229.66;5010418;28;20413;-75
2022/08/30 09:53:08;;;;;;;27.77;14.93;;;;;;;39.50;36.58;101235.25;5025582;28;20447;-73
2022/08/30 09:55:46;;;;;;;32.70;14.40;;;;;;;39.47;36.58;101239.41;5011159;28;20514;-73
2022/08/30 09:58:36;;;;;;;18.20;11.17;;;;;;;39.42;36.66;101236.00;5011057;28;20444;-74
2022/08/30 10:01:13;;;;;;;33.53;13.57;;;;;;;39.03;37.14;101231.94;5011260;28;20424;-74
2022/08/30 10:04:05;;;;;;;24.43;11.07;;;;;;;38.60;37.59;101229.56;5011085;28;20531;-74
2022/08/30 10:07:11;;;;;;;23.53;11.97;;;;;;;39.03;37.07;101223.00;4979378;28;20503;-73
2022/08/30 10:09:53;;;;;;;31.10;14.27;;;;;;;39.24;36.98;101210.63;5023500;28;20535;-74
2022/08/30 10:12:24;;;;;;;35.70;18.80;;;;;;;39.15;37.13;101193.44;4995866;28;20419;-74
2022/08/30 10:14:58;;;;;;;25.20;13.90;;;;;;;38.76;37.61;101181.28;5001897;28;20474;-76
2022/08/30 10:17:33;;;;;;;34.90;12.00;;;;;;;38.93;38.10;101170.59;5034414;28;20446;-73
2022/08/30 10:20:20;;;;;;;43.83;12.83;;;;;;;39.31;37.60;101167.59;5034593;28;20847;-74
2022/08/30 10:23:08;;;;;;;36.20;11.77;;;;;;;39.22;37.81;101169.41;5034217;28;20509;-71
2022/08/30 10:25:40;;;;;;;39.03;13.13;;;;;;;39.43;37.98;101156.16;5034540;28;20479;-74
2022/08/30 10:28:26;;;;;;;31.03;14.67;;;;;;;39.46;37.88;101152.81;5035851;28;20836;-76
2022/08/30 10:31:02;;;;;;;29.63;12.90;;;;;;;39.23;38.26;101155.56;5034064;28;20454;-75
2022/08/30 10:33:39;;;;;;;21.00;11.07;;;;;;;39.16;38.06;101144.31;5035767;28;20805;-74
2022/08/30 10:36:10;;;;;;;18.27;11.40;;;;;;;39.77;37.39;101150.16;5034121;28;20458;-74
2022/08/30 10:38:38;;;;;;;26.53;11.47;;;;;;;39.61;37.21;101146.25;5034509;28;20454;-74
2022/08/30 10:41:32;;;;;;;25.73;11.10;;;;;;;39.30;37.82;101140.75;5033935;28;20451;-75
2022/08/30 10:44:08;;;;;;;22.53;10.13;;;;;;;39.35;37.81;101140.59;5034015;28;20421;-75
2022/08/30 10:46:53;;;;;;;25.60;13.03;;;;;;;38.69;38.84;101132.88;5034063;28;20814;-79
2022/08/30 10:49:27;;;;;;;42.40;14.50;;;;;;;38.73;39.00;101135.00;5034355;28;20399;-77
2022/08/30 10:52:13;;;;;;;25.87;13.83;;;;;;;39.10;38.46;101131.97;5033796;28;20439;-74
2022/08/30 10:55:01;;;;;;;21.90;11.73;;;;;;;39.46;37.80;101139.25;5033841;28;20852;-74
2022/08/30 10:57:27;;;;;;;30.63;11.67;;;;;;;39.34;38.16;101139.00;5035456;28;20514;-75
2022/08/30 11:00:00;;;;;;;31.00;11.20;;;;;;;39.13;38.25;101136.78;5035388;28;20432;-75
2022/08/30 11:03:01;;;;;;;30.90;11.17;;;;;;;39.10;38.51;101126.56;5033642;28;20454;-76
2022/08/30 11:06:00;;;;;;;31.13;13.77;;;;;;;39.41;37.69;101128.50;5033649;28;20454;-75
2022/08/30 11:08:36;;;;;;;23.83;11.93;;;;;;;39.54;37.54;101129.56;5033411;28;20529;-75
2022/08/30 11:11:15;;;;;;;30.97;14.47;;;;;;;39.67;37.46;101126.00;5033561;28;20507;-75
2022/08/30 11:13:44;;;;;;;34.27;14.60;;;;;;;39.64;37.42;101121.97;5033242;28;20986;-75
2022/08/30 11:16:15;;;;;;;29.10;13.40;;;;;;;39.58;37.26;101117.75;5033534;28;20430;-74
2022/08/30 11:18:53;;;;;;;17.47;11.00;;;;;;;39.68;37.20;101109.38;5032494;28;20457;-76
2022/08/30 11:21:36;;;;;;;20.80;10.93;;;;;;;39.68;36.80;101103.16;5014812;28;20838;-75
2022/08/30 11:24:20;;;;;;;28.27;14.23;;;;;;;40.07;36.79;101104.28;5031919;28;20423;-78
2022/08/30 11:26:53;;;;;;;30.87;15.00;;;;;;;40.20;36.66;101108.78;5032954;28;20454;-75
2022/08/30 11:29:43;;;;;;;33.70;15.50;;;;;;;39.84;36.94;101108.94;5033126;28;20423;-75